Time;durP1;ratioP1;P1;durP2;ratioP2;P2;SDS_P1;SDS_P2;PMS_P1;PMS_P2;Temp;Humidity;BMP_temperature;BMP_pressure;BME280_temperature;BME280_humidity;BME280_pressure;Samples;Min_cycle;Max_cycle;Signal;HPM_P1;HPM_P2
2021/11/26 00:01:48;;;;;;;67.53;26.00;;;6.00;74.60;;;;;;5035677;28;20414;-76
2021/11/26 00:04:14;;;;;;;66.97;27.50;;;6.10;73.80;;;;;;5034434;28;20426;-75
2021/11/26 00:06:39;;;;;;;71.97;28.00;;;6.10;72.90;;;;;;5034125;28;20430;-76
2021/11/26 00:09:05;;;;;;;69.67;27.50;;;6.00;73.70;;;;;;5034105;28;20407;-77
2021/11/26 00:11:30;;;;;;;69.68;27.75;;;6.10;73.20;;;;;;5033911;28;20407;-77
2021/11/26 00:14:06;;;;;;;80.90;28.55;;;6.00;73.20;;;;;;5034666;28;20379;-78
2021/11/26 00:16:38;;;;;;;71.15;29.08;;;6.10;74.50;;;;;;5034937;28;20404;-78
2021/11/26 00:19:06;;;;;;;87.38;31.25;;;6.10;74.60;;;;;;5034436;28;20435;-77
2021/11/26 00:21:34;;;;;;;72.90;29.40;;;6.00;74.40;;;;;;5033882;28;20395;-76
2021/11/26 00:24:00;;;;;;;81.03;27.95;;;6.00;74.90;;;;;;5018265;28;20901;-76
2021/11/26 00:26:26;;;;;;;78.57;28.77;;;6.10;74.90;;;;;;5033592;28;20397;-75
2021/11/26 00:28:51;;;;;;;69.75;28.30;;;6.10;73.30;;;;;;5034973;28;20880;-78
2021/11/26 00:31:17;;;;;;;64.68;27.92;;;6.00;72.20;;;;;;5030406;28;20414;-77
2021/11/26 00:33:42;;;;;;;68.17;26.67;;;6.00;72.50;;;;;;5028704;28;20411;-77
2021/11/26 00:36:08;;;;;;;91.83;29.07;;;6.00;72.30;;;;;;5035019;28;20434;-77
2021/11/26 00:38:33;;;;;;;77.20;29.90;;;6.00;72.70;;;;;;5034675;28;20401;-77
2021/11/26 00:40:59;;;;;;;71.77;28.60;;;6.00;73.10;;;;;;5035440;28;20391;-78
2021/11/26 00:43:25;;;;;;;69.87;29.17;;;6.00;73.20;;;;;;5034943;28;20732;-77
2021/11/26 00:45:50;;;;;;;79.87;30.60;;;6.10;73.60;;;;;;5032490;28;20783;-78
2021/11/26 00:48:16;;;;;;;72.60;31.53;;;6.00;74.30;;;;;;5026984;28;20437;-77
2021/11/26 00:50:43;;;;;;;67.07;28.73;;;6.00;75.40;;;;;;5032293;28;20399;-76
2021/11/26 00:53:08;;;;;;;81.88;30.90;;;6.00;74.90;;;;;;5041846;28;20379;-77
2021/11/26 00:55:34;;;;;;;79.15;30.20;;;6.10;75.30;;;;;;5032913;28;20474;-76
2021/11/26 00:58:00;;;;;;;77.87;31.40;;;6.00;75.10;;;;;;5033867;28;20787;-77
2021/11/26 01:00:25;;;;;;;74.20;30.40;;;6.00;74.30;;;;;;5035413;28;20391;-77
2021/11/26 01:02:51;;;;;;;74.80;30.33;;;6.10;75.10;;;;;;5038268;28;20380;-77
2021/11/26 01:05:17;;;;;;;71.67;29.77;;;6.10;74.80;;;;;;5039759;28;20397;-77
2021/11/26 01:07:43;;;;;;;65.65;28.08;;;6.20;72.70;;;;;;5038333;28;20803;-76
2021/11/26 01:10:13;;;;;;;69.57;30.05;;;6.20;71.20;;;;;;5040831;28;20399;-77
2021/11/26 01:12:39;;;;;;;85.43;30.50;;;6.20;72.00;;;;;;5032486;28;20399;-77
2021/11/26 01:15:08;;;;;;;86.57;31.10;;;6.20;72.40;;;;;;5041844;28;20741;-77
2021/11/26 01:17:33;;;;;;;82.47;33.00;;;6.20;72.60;;;;;;5038909;28;20491;-77
2021/11/26 01:19:59;;;;;;;76.25;32.17;;;6.20;73.00;;;;;;5032962;28;20403;-76
2021/11/26 01:22:25;;;;;;;77.63;33.00;;;6.20;73.30;;;;;;5036428;28;20466;-77
2021/11/26 01:24:50;;;;;;;71.90;30.33;;;6.30;72.40;;;;;;5041726;28;20729;-77
2021/11/26 01:27:16;;;;;;;79.93;32.23;;;6.20;72.40;;;;;;5039967;28;20864;-77
2021/11/26 01:29:42;;;;;;;81.37;33.20;;;6.20;72.90;;;;;;5040686;28;20399;-78
2021/11/26 01:32:07;;;;;;;85.80;33.23;;;6.10;72.20;;;;;;5037074;28;20398;-77
2021/11/26 01:34:34;;;;;;;76.00;30.58;;;6.10;74.00;;;;;;5036536;28;20450;-78
2021/11/26 01:37:00;;;;;;;75.03;32.03;;;6.20;73.80;;;;;;5040559;28;20505;-77
2021/11/26 01:39:26;;;;;;;83.17;33.43;;;6.20;70.20;;;;;;5042104;28;20870;-78
2021/11/26 01:41:52;;;;;;;82.13;32.37;;;6.20;70.70;;;;;;5034625;28;20395;-78
2021/11/26 01:44:19;;;;;;;75.20;33.38;;;6.20;71.00;;;;;;5033374;28;20483;-77
2021/11/26 01:46:44;;;;;;;77.25;31.55;;;6.20;71.90;;;;;;5035015;28;20780;-76
2021/11/26 01:49:11;;;;;;;78.50;33.95;;;6.20;72.70;;;;;;5032086;28;20405;-76
2021/11/26 01:51:37;;;;;;;77.00;33.17;;;6.30;70.50;;;;;;5030977;28;20403;-76
2021/11/26 01:54:06;;;;;;;68.40;30.87;;;6.30;69.80;;;;;;5031538;28;20426;-75
2021/11/26 01:56:32;;;;;;;72.53;31.30;;;6.30;68.70;;;;;;5034228;28;20907;-75
2021/11/26 01:58:58;;;;;;;82.18;33.30;;;6.30;69.10;;;;;;5033543;28;20430;-77
2021/11/26 02:01:24;;;;;;;84.85;34.60;;;6.40;66.50;;;;;;5031479;28;20819;-77
2021/11/26 02:03:50;;;;;;;79.38;32.40;;;6.20;68.90;;;;;;5031818;28;20419;-77
2021/11/26 02:06:16;;;;;;;78.45;31.65;;;6.10;71.20;;;;;;5030738;28;20548;-76
2021/11/26 02:08:43;;;;;;;75.10;32.08;;;6.10;71.70;;;;;;5031672;28;20392;-76
2021/11/26 02:11:08;;;;;;;73.20;31.33;;;6.00;72.40;;;;;;5032016;28;20395;-75
2021/11/26 02:13:34;;;;;;;74.07;31.33;;;6.10;70.90;;;;;;5033723;28;20841;-76
2021/11/26 02:16:02;;;;;;;70.10;30.23;;;6.20;69.60;;;;;;5033272;28;20805;-76
2021/11/26 02:18:28;;;;;;;72.90;30.60;;;6.20;69.60;;;;;;5032682;28;20456;-77
2021/11/26 02:20:54;;;;;;;70.55;31.55;;;6.10;70.00;;;;;;5043588;28;20447;-76
2021/11/26 02:23:20;;;;;;;75.15;31.42;;;6.10;70.20;;;;;;5038376;28;20441;-76
2021/11/26 02:25:46;;;;;;;77.90;31.50;;;6.00;71.30;;;;;;5043195;28;20379;-76
2021/11/26 02:28:14;;;;;;;66.80;29.75;;;6.10;68.80;;;;;;5049159;28;20414;-75
2021/11/26 02:30:41;;;;;;;70.90;31.00;;;6.10;70.10;;;;;;5039764;28;20875;-76
2021/11/26 02:33:10;;;;;;;69.13;31.45;;;5.90;71.10;;;;;;5029553;28;20765;-75
2021/11/26 02:35:36;;;;;;;69.35;31.77;;;5.90;70.90;;;;;;5031296;28;20395;-75
2021/11/26 02:38:04;;;;;;;74.55;31.42;;;6.00;70.00;;;;;;5026128;28;20395;-75
2021/11/26 02:40:31;;;;;;;74.70;32.80;;;6.00;70.90;;;;;;5033285;28;20445;-77
2021/11/26 02:42:57;;;;;;;72.32;32.25;;;6.10;70.20;;;;;;5032615;28;20410;-77
2021/11/26 02:45:25;;;;;;;77.45;33.50;;;6.00;70.10;;;;;;5033827;28;20383;-77
2021/11/26 02:47:51;;;;;;;64.47;31.38;;;5.90;71.80;;;;;;5041886;28;20399;-76
2021/11/26 02:50:18;;;;;;;73.20;32.63;;;6.00;71.10;;;;;;5034520;28;20501;-77
2021/11/26 02:52:45;;;;;;;72.30;31.90;;;5.90;72.10;;;;;;5022906;28;20482;-76
2021/11/26 02:55:15;;;;;;;64.47;30.30;;;5.90;71.70;;;;;;5029793;28;20408;-75
2021/11/26 02:57:41;;;;;;;62.20;28.75;;;5.90;71.40;;;;;;5028295;28;20403;-75
2021/11/26 03:00:08;;;;;;;61.17;28.45;;;5.90;71.20;;;;;;5027700;28;20426;-74
2021/11/26 03:02:33;;;;;;;56.05;27.92;;;5.90;71.40;;;;;;5029519;28;20528;-74
2021/11/26 03:04:59;;;;;;;54.38;26.63;;;6.00;71.40;;;;;;5028674;28;20490;-75
2021/11/26 03:07:24;;;;;;;55.47;25.95;;;6.00;69.90;;;;;;5029868;28;20406;-75
2021/11/26 03:09:50;;;;;;;47.35;25.20;;;6.00;68.90;;;;;;5030347;28;20407;-73
2021/11/26 03:12:16;;;;;;;48.97;24.50;;;6.00;69.20;;;;;;5030467;28;20417;-73
2021/11/26 03:14:41;;;;;;;48.42;24.15;;;6.00;68.80;;;;;;5029398;28;20402;-75
2021/11/26 03:17:07;;;;;;;52.60;23.40;;;6.00;67.00;;;;;;5044384;28;20417;-74
2021/11/26 03:19:32;;;;;;;47.37;23.87;;;6.00;67.70;;;;;;5033812;28;20395;-74
2021/11/26 03:21:58;;;;;;;53.20;23.47;;;6.00;68.50;;;;;;5039654;28;20397;-74
2021/11/26 03:24:24;;;;;;;48.30;22.90;;;6.00;67.70;;;;;;5034409;28;20391;-75
2021/11/26 03:26:49;;;;;;;46.57;22.70;;;6.00;68.20;;;;;;5033855;28;20471;-76
2021/11/26 03:29:15;;;;;;;48.27;21.27;;;5.90;69.30;;;;;;5033487;28;20414;-75
2021/11/26 03:31:40;;;;;;;45.25;22.35;;;5.90;67.60;;;;;;5033756;28;20474;-75
2021/11/26 03:34:06;;;;;;;45.38;21.33;;;6.00;67.80;;;;;;5032194;28;20406;-76
2021/11/26 03:36:32;;;;;;;46.35;22.05;;;5.90;68.10;;;;;;5049944;28;20407;-78
2021/11/26 03:38:57;;;;;;;44.10;22.10;;;5.90;67.50;;;;;;5036560;28;20441;-75
2021/11/26 03:41:23;;;;;;;45.80;21.53;;;5.90;67.70;;;;;;5046252;28;20452;-74
2021/11/26 03:43:49;;;;;;;44.03;20.90;;;5.90;67.90;;;;;;5054768;28;20412;-76
2021/11/26 03:46:16;;;;;;;43.13;22.10;;;5.90;69.20;;;;;;5054917;28;20405;-78
2021/11/26 03:48:43;;;;;;;42.15;21.40;;;5.90;67.70;;;;;;5040394;28;20393;-76
2021/11/26 03:51:09;;;;;;;39.95;19.98;;;5.90;67.80;;;;;;5037575;28;20433;-76
2021/11/26 03:53:34;;;;;;;44.13;21.42;;;6.00;66.20;;;;;;5035234;28;20422;-75
2021/11/26 03:56:00;;;;;;;39.92;20.65;;;6.00;67.00;;;;;;5034062;28;20414;-75
2021/11/26 03:58:25;;;;;;;38.20;20.70;;;6.10;64.80;;;;;;5032876;28;20399;-75
2021/11/26 04:00:51;;;;;;;45.20;21.50;;;6.00;65.90;;;;;;5032965;28;20395;-76
2021/11/26 04:03:16;;;;;;;46.20;20.73;;;6.00;65.80;;;;;;5031913;28;20395;-77
2021/11/26 04:05:42;;;;;;;43.03;22.40;;;5.90;66.50;;;;;;5033600;28;20899;-76
2021/11/26 04:08:08;;;;;;;46.80;22.30;;;5.90;67.00;;;;;;5034395;28;20871;-75
2021/11/26 04:10:35;;;;;;;48.78;23.02;;;6.00;66.30;;;;;;5033863;28;20736;-75
2021/11/26 04:13:01;;;;;;;51.92;23.15;;;5.90;66.70;;;;;;5033261;28;20799;-76
2021/11/26 04:15:26;;;;;;;52.20;23.30;;;6.00;66.00;;;;;;5033109;28;20383;-75
2021/11/26 04:17:55;;;;;;;46.37;23.83;;;5.90;66.80;;;;;;5033340;28;20433;-75
2021/11/26 04:20:20;;;;;;;52.75;23.40;;;5.80;68.30;;;;;;5033025;28;20395;-74
2021/11/26 04:22:46;;;;;;;47.97;24.50;;;5.80;68.60;;;;;;5033040;28;20780;-74
2021/11/26 04:25:14;;;;;;;55.00;23.83;;;5.80;69.80;;;;;;5033141;28;20470;-75
2021/11/26 04:27:41;;;;;;;52.17;25.20;;;5.80;70.50;;;;;;5032523;28;20513;-76
2021/11/26 04:30:08;;;;;;;52.15;25.58;;;5.80;70.60;;;;;;5032112;28;20391;-75
2021/11/26 04:32:34;;;;;;;59.35;26.85;;;5.80;71.70;;;;;;5031620;28;20741;-75
2021/11/26 04:35:00;;;;;;;53.13;25.77;;;5.80;72.30;;;;;;5031521;28;20401;-75
2021/11/26 04:37:26;;;;;;;54.53;25.92;;;5.80;71.50;;;;;;5014949;28;20979;-75
2021/11/26 04:39:52;;;;;;;54.63;25.40;;;5.90;70.90;;;;;;5013208;28;20396;-77
2021/11/26 04:42:17;;;;;;;53.50;26.00;;;5.90;70.20;;;;;;5012527;28;20809;-75
2021/11/26 04:44:43;;;;;;;48.53;25.92;;;5.90;70.50;;;;;;5013012;28;20399;-74
2021/11/26 04:47:09;;;;;;;58.47;26.63;;;5.90;71.60;;;;;;5014720;28;20500;-75
2021/11/26 04:49:34;;;;;;;61.70;25.95;;;5.90;73.80;;;;;;5031966;28;20426;-77
2021/11/26 04:52:00;;;;;;;61.95;25.70;;;5.90;73.30;;;;;;5036919;28;20818;-77
2021/11/26 04:54:26;;;;;;;56.97;25.98;;;5.90;73.70;;;;;;5037054;28;20920;-76
2021/11/26 04:56:51;;;;;;;51.45;26.10;;;5.90;74.90;;;;;;5039558;28;20465;-76
2021/11/26 04:59:17;;;;;;;59.53;26.38;;;5.80;75.70;;;;;;5033852;28;20395;-75
2021/11/26 05:01:42;;;;;;;50.03;25.55;;;5.80;76.40;;;;;;5031865;28;20518;-75
2021/11/26 05:04:08;;;;;;;49.67;26.17;;;5.80;76.20;;;;;;5032321;28;20426;-75
2021/11/26 05:06:36;;;;;;;55.37;25.73;;;5.80;77.10;;;;;;5031811;28;20460;-76
2021/11/26 05:09:05;;;;;;;51.58;26.27;;;5.90;77.80;;;;;;5031301;28;20474;-76
2021/11/26 05:11:31;;;;;;;57.73;26.83;;;5.80;77.50;;;;;;5031686;28;20805;-75
2021/11/26 05:13:57;;;;;;;55.50;25.77;;;5.90;78.50;;;;;;5035982;28;20387;-76
2021/11/26 05:16:23;;;;;;;48.70;25.20;;;5.90;77.70;;;;;;5037119;28;20408;-77
2021/11/26 05:18:48;;;;;;;45.92;24.60;;;5.90;76.30;;;;;;5033888;28;20395;-76
2021/11/26 05:21:14;;;;;;;46.80;24.20;;;5.90;75.40;;;;;;5031983;28;20423;-75
2021/11/26 05:23:40;;;;;;;47.30;23.23;;;5.90;76.90;;;;;;5032686;28;20403;-75
2021/11/26 05:26:06;;;;;;;51.15;23.75;;;5.90;75.80;;;;;;5036339;28;20418;-77
2021/11/26 05:28:32;;;;;;;45.30;23.35;;;5.90;75.20;;;;;;5037387;28;20383;-76
2021/11/26 05:30:58;;;;;;;48.78;25.27;;;5.90;76.10;;;;;;5034228;28;20474;-78
2021/11/26 05:33:23;;;;;;;43.67;22.30;;;5.90;75.10;;;;;;5038197;28;20434;-76
2021/11/26 05:35:49;;;;;;;45.83;22.50;;;5.90;74.80;;;;;;5035891;28;20470;-76
2021/11/26 05:38:15;;;;;;;39.20;22.08;;;5.90;74.90;;;;;;5031348;28;20769;-75
2021/11/26 05:40:42;;;;;;;41.15;22.33;;;5.90;74.10;;;;;;5031845;28;20387;-76
2021/11/26 05:43:08;;;;;;;45.67;23.17;;;5.90;76.60;;;;;;5030239;28;20761;-76
2021/11/26 05:45:34;;;;;;;42.72;22.50;;;5.90;77.80;;;;;;5031579;28;20494;-77
2021/11/26 05:47:59;;;;;;;47.47;22.20;;;5.90;77.80;;;;;;5031476;28;20902;-75
2021/11/26 05:50:27;;;;;;;43.87;20.93;;;5.90;77.20;;;;;;5031675;28;20419;-75
2021/11/26 05:52:52;;;;;;;43.15;22.20;;;5.90;77.70;;;;;;5029914;28;20444;-76
2021/11/26 05:55:21;;;;;;;44.33;21.95;;;5.90;78.30;;;;;;5030659;28;20417;-75
2021/11/26 05:57:47;;;;;;;43.22;21.98;;;5.90;77.20;;;;;;5031841;28;20411;-74
2021/11/26 06:00:16;;;;;;;38.97;21.58;;;6.00;77.10;;;;;;5031119;28;20958;-76
2021/11/26 06:02:42;;;;;;;42.67;22.77;;;5.90;77.60;;;;;;5031375;28;20884;-76
2021/11/26 06:05:08;;;;;;;46.03;22.27;;;5.90;79.40;;;;;;5031850;28;20466;-77
2021/11/26 06:07:34;;;;;;;35.25;19.73;;;5.90;77.90;;;;;;5029142;28;20439;-75
2021/11/26 06:10:01;;;;;;;39.15;22.05;;;5.90;78.40;;;;;;5029425;28;20410;-76
2021/11/26 06:12:26;;;;;;;42.27;22.37;;;5.90;76.20;;;;;;5030635;28;20463;-76
2021/11/26 06:14:54;;;;;;;41.40;23.00;;;5.90;76.30;;;;;;5030569;28;20478;-75
2021/11/26 06:17:21;;;;;;;38.22;20.80;;;5.90;76.90;;;;;;5030375;28;20473;-77
2021/11/26 06:19:46;;;;;;;48.90;23.35;;;5.90;77.10;;;;;;5030863;28;20832;-76
2021/11/26 06:22:12;;;;;;;44.28;23.55;;;5.80;79.70;;;;;;5027467;28;20431;-75
2021/11/26 06:24:38;;;;;;;47.83;23.02;;;5.80;79.80;;;;;;5023524;28;21075;-75
2021/11/26 06:27:04;;;;;;;41.70;23.20;;;5.90;79.30;;;;;;5030794;28;20397;-74
2021/11/26 06:29:29;;;;;;;43.73;23.47;;;5.90;78.70;;;;;;5030369;28;20402;-75
2021/11/26 06:31:55;;;;;;;45.07;23.10;;;5.90;78.60;;;;;;5029718;28;20768;-75
2021/11/26 06:34:21;;;;;;;46.40;23.43;;;5.90;77.90;;;;;;5029398;28;20391;-76
2021/11/26 06:36:46;;;;;;;36.90;21.50;;;5.90;79.10;;;;;;5023714;28;20417;-75
2021/11/26 06:39:12;;;;;;;40.80;21.40;;;5.90;78.00;;;;;;5011458;28;20388;-75
2021/11/26 06:41:37;;;;;;;43.37;21.53;;;5.90;74.90;;;;;;5011090;28;20434;-74
2021/11/26 06:44:03;;;;;;;33.27;20.70;;;5.90;76.50;;;;;;5028732;28;20399;-75
2021/11/26 06:46:29;;;;;;;37.22;20.80;;;5.90;78.10;;;;;;5030559;28;20784;-73
2021/11/26 06:48:54;;;;;;;42.15;22.75;;;5.90;76.50;;;;;;5030002;28;20911;-77
2021/11/26 06:51:20;;;;;;;37.10;20.90;;;5.80;80.30;;;;;;5030381;28;20880;-75
2021/11/26 06:53:45;;;;;;;35.70;20.17;;;5.80;80.80;;;;;;5033216;28;20387;-73
2021/11/26 06:56:11;;;;;;;35.60;20.70;;;5.90;80.30;;;;;;5032956;28;20510;-75
2021/11/26 06:58:36;;;;;;;37.17;21.40;;;5.90;79.90;;;;;;5034380;28;20486;-76
2021/11/26 07:01:02;;;;;;;31.07;18.37;;;5.80;80.90;;;;;;5034383;28;20417;-75
2021/11/26 07:03:28;;;;;;;38.72;19.95;;;5.80;81.60;;;;;;5034038;28;20777;-75
2021/11/26 07:05:54;;;;;;;36.70;18.80;;;5.80;83.50;;;;;;5033551;28;20488;-75
2021/11/26 07:08:19;;;;;;;31.53;18.30;;;5.90;80.30;;;;;;5033668;28;20477;-75
2021/11/26 07:10:45;;;;;;;35.07;18.93;;;5.90;79.80;;;;;;5032005;28;20430;-74
2021/11/26 07:13:11;;;;;;;30.65;18.40;;;5.90;78.70;;;;;;5032365;28;20468;-76
2021/11/26 07:15:36;;;;;;;32.90;18.55;;;5.90;78.70;;;;;;5033790;28;20406;-75
2021/11/26 07:18:03;;;;;;;35.42;18.20;;;6.00;76.60;;;;;;5032733;28;20409;-76
2021/11/26 07:20:29;;;;;;;31.38;17.50;;;5.90;75.20;;;;;;5033169;28;20383;-75
2021/11/26 07:22:54;;;;;;;30.50;18.80;;;6.00;74.80;;;;;;5034350;28;20386;-75
2021/11/26 07:25:20;;;;;;;33.30;17.80;;;6.00;76.20;;;;;;5033705;28;20395;-75
2021/11/26 07:27:46;;;;;;;37.30;19.20;;;6.00;77.40;;;;;;5032570;28;20828;-75
2021/11/26 07:30:13;;;;;;;33.90;18.65;;;6.00;77.30;;;;;;5033391;28;20892;-75
2021/11/26 07:32:39;;;;;;;34.10;17.95;;;6.00;78.40;;;;;;5033442;28;20387;-76
2021/11/26 07:35:07;;;;;;;29.53;16.30;;;5.90;78.90;;;;;;5033851;28;20391;-76
2021/11/26 07:37:34;;;;;;;34.10;17.00;;;6.00;77.10;;;;;;5031293;28;20949;-75
2021/11/26 07:40:00;;;;;;;30.13;16.85;;;5.90;79.50;;;;;;5033433;28;20402;-76
2021/11/26 07:42:25;;;;;;;29.57;15.70;;;5.90;78.40;;;;;;5033106;28;20395;-75
2021/11/26 07:44:51;;;;;;;28.83;16.13;;;6.00;77.50;;;;;;5034052;28;20468;-76
2021/11/26 07:47:18;;;;;;;40.23;17.70;;;6.00;76.10;;;;;;5034497;28;20407;-76
2021/11/26 07:49:45;;;;;;;24.60;14.35;;;6.00;74.50;;;;;;5035185;28;20379;-77
2021/11/26 07:52:11;;;;;;;24.13;14.50;;;6.00;74.20;;;;;;5032849;28;20504;-75
2021/11/26 07:54:37;;;;;;;26.85;13.27;;;6.20;71.50;;;;;;5034361;28;20391;-77
2021/11/26 07:57:03;;;;;;;27.60;14.43;;;6.20;71.80;;;;;;5033701;28;20417;-75
2021/11/26 07:59:28;;;;;;;28.30;13.83;;;6.20;72.90;;;;;;5035103;28;20399;-73
2021/11/26 08:01:55;;;;;;;28.63;13.85;;;6.20;70.50;;;;;;5033589;28;20402;-74
2021/11/26 08:04:21;;;;;;;26.10;14.55;;;6.30;68.70;;;;;;5033127;28;20475;-74
2021/11/26 08:06:47;;;;;;;31.08;14.60;;;6.30;69.50;;;;;;5032786;28;20426;-75
2021/11/26 08:09:14;;;;;;;32.08;14.70;;;6.30;69.30;;;;;;5030522;28;20402;-74
2021/11/26 08:11:40;;;;;;;27.75;14.38;;;6.30;70.40;;;;;;5019651;28;20503;-74
2021/11/26 08:14:07;;;;;;;30.48;14.25;;;6.30;69.80;;;;;;5010534;28;20779;-75
2021/11/26 08:16:34;;;;;;;29.13;14.32;;;6.30;69.80;;;;;;5013703;28;20415;-75
2021/11/26 08:18:59;;;;;;;35.88;15.48;;;6.30;67.90;;;;;;5018224;28;20391;-75
2021/11/26 08:21:25;;;;;;;37.03;15.87;;;6.30;68.90;;;;;;5032857;28;20457;-74
2021/11/26 08:23:51;;;;;;;36.20;16.05;;;6.30;65.80;;;;;;5033170;28;20458;-73
2021/11/26 08:26:17;;;;;;;29.95;15.27;;;6.30;67.10;;;;;;5032851;28;20410;-74
2021/11/26 08:28:42;;;;;;;43.75;16.80;;;6.40;66.10;;;;;;5029110;28;20419;-74
2021/11/26 08:31:08;;;;;;;38.47;17.93;;;6.30;68.40;;;;;;5031095;28;20398;-74
2021/11/26 08:33:33;;;;;;;35.50;17.17;;;6.40;65.70;;;;;;5035884;28;20397;-74
2021/11/26 08:36:00;;;;;;;36.90;17.53;;;6.40;64.60;;;;;;5032058;28;20912;-73
2021/11/26 08:38:26;;;;;;;39.03;15.88;;;6.50;64.00;;;;;;5030283;28;20958;-75
2021/11/26 08:40:52;;;;;;;36.97;16.67;;;6.60;60.20;;;;;;5045867;28;20395;-74
2021/11/26 08:43:18;;;;;;;40.50;16.98;;;6.50;62.40;;;;;;5027315;28;20939;-75
2021/11/26 08:45:43;;;;;;;31.55;15.85;;;6.50;62.00;;;;;;5047128;28;20406;-75
2021/11/26 08:48:10;;;;;;;30.02;16.25;;;6.50;62.30;;;;;;5032661;28;20403;-75
2021/11/26 08:50:36;;;;;;;31.40;15.32;;;6.50;62.00;;;;;;5029116;28;20405;-74
2021/11/26 08:53:05;;;;;;;36.97;14.97;;;6.60;60.80;;;;;;5031984;28;20954;-74
2021/11/26 08:55:31;;;;;;;47.83;17.98;;;6.60;60.40;;;;;;5030771;28;20410;-74
2021/11/26 08:57:58;;;;;;;34.05;15.35;;;6.60;61.40;;;;;;5032305;28;20407;-74
2021/11/26 09:00:31;;;;;;;31.52;15.30;;;6.70;58.40;;;;;;5032534;28;20387;-75
2021/11/26 09:02:59;;;;;;;38.10;15.43;;;6.60;60.00;;;;;;5031760;28;20512;-75
2021/11/26 09:05:26;;;;;;;38.45;15.68;;;6.60;60.00;;;;;;5032284;28;20426;-74
2021/11/26 09:07:57;;;;;;;36.53;15.18;;;6.60;59.60;;;;;;5034795;28;20403;-74
2021/11/26 09:10:23;;;;;;;27.55;13.80;;;6.70;60.00;;;;;;5031413;28;20463;-74
2021/11/26 09:12:49;;;;;;;32.73;14.27;;;6.60;59.10;;;;;;5030984;28;20407;-73
2021/11/26 09:15:15;;;;;;;30.83;14.55;;;6.70;56.40;;;;;;5027977;28;20393;-75
2021/11/26 09:17:40;;;;;;;31.63;14.23;;;6.70;57.40;;;;;;5015590;28;20427;-74
2021/11/26 09:20:07;;;;;;;35.03;14.55;;;6.70;58.50;;;;;;5031286;28;20887;-73
2021/11/26 09:22:33;;;;;;;27.90;12.77;;;6.70;58.10;;;;;;5024980;28;20403;-74
2021/11/26 09:24:58;;;;;;;32.23;13.90;;;6.80;56.20;;;;;;5013887;28;20381;-73
2021/11/26 09:27:24;;;;;;;31.30;12.30;;;6.80;56.50;;;;;;5030290;28;20398;-74
2021/11/26 09:29:50;;;;;;;33.75;12.30;;;6.70;55.50;;;;;;5030480;28;20915;-73
2021/11/26 09:32:15;;;;;;;28.17;11.43;;;6.80;54.30;;;;;;5031066;28;20458;-74
2021/11/26 09:34:41;;;;;;;36.67;12.40;;;6.80;53.50;;;;;;5030735;28;20398;-74
2021/11/26 09:37:07;;;;;;;28.30;12.03;;;6.90;52.50;;;;;;5027050;28;20449;-74
2021/11/26 09:39:33;;;;;;;29.67;13.05;;;6.80;54.10;;;;;;5031515;28;20399;-74
2021/11/26 09:41:59;;;;;;;29.48;12.27;;;6.80;55.20;;;;;;5028401;28;20397;-74
2021/11/26 09:44:25;;;;;;;28.43;12.77;;;6.80;53.00;;;;;;5031406;28;20793;-73
2021/11/26 09:46:54;;;;;;;39.42;13.13;;;6.90;53.70;;;;;;5028659;28;20544;-73
2021/11/26 09:49:20;;;;;;;27.77;12.93;;;6.90;53.60;;;;;;5031006;28;20439;-74
2021/11/26 09:51:46;;;;;;;29.45;12.50;;;7.00;51.20;;;;;;5011094;28;20419;-74
2021/11/26 09:54:11;;;;;;;28.53;13.33;;;7.00;51.30;;;;;;5030830;28;20419;-75
2021/11/26 09:56:37;;;;;;;30.73;13.23;;;6.90;51.00;;;;;;5036330;28;20493;-73
2021/11/26 09:59:03;;;;;;;28.70;12.80;;;6.90;49.70;;;;;;5025995;28;20421;-74
2021/11/26 10:01:29;;;;;;;35.58;13.07;;;6.80;49.60;;;;;;5029063;28;20407;-74
2021/11/26 10:03:55;;;;;;;35.10;13.55;;;6.80;49.80;;;;;;5026280;28;20399;-73
2021/11/26 10:06:22;;;;;;;34.35;13.50;;;6.80;49.90;;;;;;5028172;28;20418;-74
2021/11/26 10:08:58;;;;;;;31.25;12.70;;;6.80;50.00;;;;;;5032345;28;20431;-73
2021/11/26 10:11:27;;;;;;;30.85;12.57;;;6.70;49.20;;;;;;5039665;28;20399;-73
2021/11/26 10:13:53;;;;;;;35.63;13.93;;;6.80;49.40;;;;;;5032069;28;20402;-75
2021/11/26 10:16:19;;;;;;;40.13;13.13;;;6.90;49.70;;;;;;5032498;28;20471;-74
2021/11/26 10:18:47;;;;;;;32.90;12.20;;;6.90;47.50;;;;;;5030831;28;20394;-73
2021/11/26 10:21:13;;;;;;;32.92;12.98;;;6.90;46.50;;;;;;5030889;28;20778;-73
2021/11/26 10:23:47;;;;;;;32.70;12.70;;;6.80;46.90;;;;;;5030225;28;20498;-73
2021/11/26 10:26:17;;;;;;;37.58;12.70;;;6.80;42.70;;;;;;5030480;28;20920;-74
2021/11/26 10:28:50;;;;;;;36.05;13.68;;;6.90;42.30;;;;;;5032669;28;20432;-74
2021/11/26 10:31:33;;;;;;;32.58;12.02;;;6.90;41.10;;;;;;5036321;28;20515;-75
2021/11/26 10:34:06;;;;;;;28.30;12.13;;;6.90;38.70;;;;;;5031899;28;20537;-74
2021/11/26 10:36:46;;;;;;;27.08;12.50;;;6.80;38.20;;;;;;5027150;28;20800;-74
2021/11/26 10:39:16;;;;;;;32.10;13.02;;;6.80;39.30;;;;;;5034055;28;20387;-74
2021/11/26 10:41:43;;;;;;;32.55;12.00;;;6.70;38.70;;;;;;5032939;28;20783;-74
2021/11/26 10:44:11;;;;;;;29.53;10.57;;;6.70;38.00;;;;;;5034727;28;20471;-75
2021/11/26 10:47:04;;;;;;;27.35;11.60;;;6.80;37.60;;;;;;5033953;28;20483;-74
2021/11/26 10:52:13;;;;;;;29.15;11.40;;;6.90;36.10;;;;;;5032583;28;20407;-72
2021/11/26 11:00:16;;;;;;;31.80;10.30;;;7.00;34.00;;;;;;5034643;28;20400;-73
2021/11/26 11:02:46;;;;;;;24.42;10.02;;;7.00;33.90;;;;;;5036546;28;20406;-74
2021/11/26 11:05:31;;;;;;;25.40;10.25;;;7.00;33.20;;;;;;5035538;28;20391;-73
2021/11/26 11:08:00;;;;;;;24.17;9.80;;;7.00;34.00;;;;;;5032562;28;21032;-73
2021/11/26 11:10:37;;;;;;;25.52;10.10;;;7.00;33.30;;;;;;5033936;28;20409;-74
2021/11/26 11:13:09;;;;;;;28.10;9.35;;;7.00;33.30;;;;;;5031050;28;20399;-75
2021/11/26 11:15:36;;;;;;;23.38;9.00;;;7.20;32.90;;;;;;5036668;28;20440;-73
2021/11/26 11:18:02;;;;;;;18.17;8.00;;;7.20;32.00;;;;;;5030110;28;20434;-76
2021/11/26 11:20:28;;;;;;;20.88;8.32;;;7.20;30.70;;;;;;5034132;28;20391;-73
2021/11/26 11:22:54;;;;;;;29.58;9.63;;;7.10;31.20;;;;;;5034298;28;20383;-74
2021/11/26 11:25:26;;;;;;;17.00;7.73;;;7.30;31.50;;;;;;5032939;28;20756;-75
2021/11/26 11:27:58;;;;;;;21.55;8.05;;;7.30;29.90;;;;;;5035780;28;20406;-74
2021/11/26 11:30:25;;;;;;;26.30;9.07;;;7.30;30.40;;;;;;5030505;28;20410;-75
2021/11/26 11:32:50;;;;;;;20.42;7.57;;;7.40;29.40;;;;;;5024129;28;20482;-77
2021/11/26 11:35:19;;;;;;;18.95;7.28;;;7.40;29.50;;;;;;5038112;28;20442;-72
2021/11/26 11:37:48;;;;;;;20.85;6.88;;;7.40;27.10;;;;;;5041276;28;20415;-72
2021/11/26 11:40:43;;;;;;;24.73;7.80;;;7.40;27.50;;;;;;5037826;28;20425;-74
2021/11/26 11:43:12;;;;;;;16.88;7.35;;;7.50;27.50;;;;;;5030151;28;20444;-75
2021/11/26 11:45:40;;;;;;;18.23;6.90;;;7.50;27.40;;;;;;5032685;28;20399;-72
2021/11/26 11:48:09;;;;;;;20.45;6.88;;;7.60;26.70;;;;;;5030466;28;20406;-75
2021/11/26 11:50:43;;;;;;;19.55;7.40;;;7.60;27.30;;;;;;5027405;28;20404;-72
2021/11/26 11:53:20;;;;;;;13.50;5.67;;;7.70;27.70;;;;;;5021214;28;20399;-73
2021/11/26 11:55:46;;;;;;;23.20;6.65;;;7.70;26.60;;;;;;5032417;28;20410;-73
2021/11/26 11:58:19;;;;;;;19.20;7.10;;;7.70;27.00;;;;;;5023401;28;20772;-73
2021/11/26 12:00:48;;;;;;;19.70;7.28;;;7.80;27.30;;;;;;5029385;28;20743;-73
2021/11/26 12:03:23;;;;;;;20.98;6.55;;;7.70;28.10;;;;;;5032911;28;20395;-73
2021/11/26 12:06:00;;;;;;;17.75;6.30;;;7.80;27.90;;;;;;5031446;28;20421;-73
2021/11/26 12:08:27;;;;;;;14.70;6.38;;;7.80;27.40;;;;;;5030851;28;20399;-73
2021/11/26 12:10:56;;;;;;;14.25;6.40;;;7.90;27.30;;;;;;5035059;28;20395;-73
2021/11/26 12:13:33;;;;;;;14.82;6.20;;;7.90;26.70;;;;;;5023618;28;20469;-74
2021/11/26 12:16:08;;;;;;;17.20;6.80;;;8.00;27.50;;;;;;5031343;28;20516;-73
2021/11/26 12:18:53;;;;;;;15.68;6.38;;;8.20;27.70;;;;;;5030224;28;20485;-75
2021/11/26 12:21:28;;;;;;;16.77;6.50;;;8.30;27.10;;;;;;5031073;28;20403;-76
2021/11/26 12:24:16;;;;;;;13.23;6.20;;;8.20;27.10;;;;;;5019467;28;20834;-78
2021/11/26 12:26:56;;;;;;;16.15;7.10;;;8.20;27.40;;;;;;5027867;28;20455;-74
2021/11/26 12:29:43;;;;;;;15.05;6.53;;;8.20;27.20;;;;;;5032652;28;20887;-75
2021/11/26 12:32:18;;;;;;;16.40;6.55;;;8.00;27.80;;;;;;5032710;28;20424;-75
2021/11/26 12:34:47;;;;;;;24.70;7.47;;;8.00;28.40;;;;;;5033749;28;20990;-75
2021/11/26 12:37:33;;;;;;;16.88;7.00;;;7.90;28.60;;;;;;5023823;28;20818;-74
2021/11/26 12:40:05;;;;;;;17.00;6.30;;;7.90;29.30;;;;;;5032833;28;20399;-75
2021/11/26 12:42:31;;;;;;;14.55;5.72;;;7.80;29.50;;;;;;5033282;28;20556;-76
2021/11/26 12:45:00;;;;;;;15.55;6.10;;;7.80;29.50;;;;;;5031877;28;20443;-75
2021/11/26 12:47:39;;;;;;;18.05;6.55;;;7.70;29.50;;;;;;5030734;28;20421;-74